»·PEaware :: N888DH KSNA-KSFO

N888DH :: KSNA-KSFO

FLIGHT INFORMATION

Flight Status: Arrived
Operator: Privately registered:
United States
More flights under this callsign
Pilot: Tanner C. (11250)
Aircraft: BOMBARDIER BD-100 CHALLENGER 300
(CL30)
More flights by this aircraft type
Origin: KSNA John Wayne-Orange Co
United States
Destination: KSFO San Francisco Intl
United States
More flights between these airports :: More routes between these airports
Route: +CHANL3 RZS SERFR SERFR2
File this flight plan on PilotEdge
Remarks:
Altitude:
(Current/Filed)
36,000ft
Speed:
(Current/Filed)
400kts
Departed: 08-Jan-18 08:15 PM
Arrived: 08-Jan-18 09:19 PM
Distance/Time
Traveled:
323nm/1:04
Distance/Time
To Go:
Arrived

Flight Plot

Page will automatically refresh every two minutes.

Flight plan parsing failed; only flown route is shown


Map Options




Map Legend


Flown Route
Filed Route
Departure Airport
Arrival Airport
Navaid (VOR, NDB)
Fix

Horizontal Profiles

Position Reports

Time Latitude Longitude Heading Altitude Ground
Speed
08-Jan-18 20:14 33.666139 -117.873171 338 63ft 0kts
08-Jan-18 20:15 33.666139 -117.873171 338 63ft 0kts
08-Jan-18 20:16 33.667465 -117.872626 38 63ft 21kts
08-Jan-18 20:17 33.670541 -117.869435 43 63ft 10kts
08-Jan-18 20:18 33.674912 -117.865961 29 63ft 21kts
08-Jan-18 20:19 33.678944 -117.863380 27 63ft 20kts
08-Jan-18 20:20 33.681221 -117.865327 207 63ft 16kts
08-Jan-18 20:21 33.637144 -117.891236 190 3167ft 266kts
08-Jan-18 20:22 33.561447 -117.927980 214 5867ft 301kts
08-Jan-18 20:23 33.506928 -118.000766 250 10824ft 301kts
08-Jan-18 20:24 33.479862 -118.100470 243 16424ft 340kts
08-Jan-18 20:25 33.465748 -118.198480 282 20966ft 398kts
08-Jan-18 20:26 33.536355 -118.288479 306 24496ft 447kts
08-Jan-18 20:27 33.605400 -118.380944 301 27611ft 457kts
08-Jan-18 20:28 33.674531 -118.482188 297 31853ft 434kts
08-Jan-18 20:29 33.741165 -118.582708 295 35533ft 421kts
08-Jan-18 20:30 33.804335 -118.679038 296 35925ft 447kts
08-Jan-18 20:31 33.875396 -118.787493 296 35923ft 450kts
08-Jan-18 20:32 33.946306 -118.896112 296 35898ft 451kts
08-Jan-18 20:33 34.015934 -119.003121 296 35896ft 452kts
08-Jan-18 20:34 34.082955 -119.106419 296 35896ft 452kts
08-Jan-18 20:35 34.133577 -119.184643 296 35877ft 453kts
08-Jan-18 20:36 34.188809 -119.270147 297 35876ft 454kts
08-Jan-18 20:37 34.261415 -119.352859 307 35877ft 472kts
08-Jan-18 20:38 34.332557 -119.429610 307 35878ft 471kts
08-Jan-18 20:39 34.405482 -119.508573 307 35878ft 471kts
08-Jan-18 20:40 34.490583 -119.601003 307 35853ft 472kts
08-Jan-18 20:41 34.567001 -119.684226 307 35863ft 472kts
08-Jan-18 20:42 34.647228 -119.771831 307 35864ft 473kts
08-Jan-18 20:43 34.726294 -119.858407 307 35844ft 473kts
08-Jan-18 20:44 34.810925 -119.951324 307 35838ft 474kts
08-Jan-18 20:45 34.889752 -120.038122 307 35818ft 475kts
08-Jan-18 20:46 34.971890 -120.128803 307 35787ft 475kts
08-Jan-18 20:47 35.053392 -120.219047 307 35786ft 475kts
08-Jan-18 20:48 35.127404 -120.301215 308 35768ft 476kts
08-Jan-18 20:49 35.186457 -120.366923 308 35769ft 476kts
08-Jan-18 20:50 35.252612 -120.440710 308 35769ft 477kts
08-Jan-18 20:51 35.319786 -120.515915 309 35772ft 477kts
08-Jan-18 20:52 35.389721 -120.594213 310 35772ft 477kts
08-Jan-18 20:53 35.456299 -120.668933 309 35779ft 477kts
08-Jan-18 20:54 35.527409 -120.749027 310 35780ft 482kts
08-Jan-18 20:55 35.598467 -120.829149 309 35780ft 476kts
08-Jan-18 20:56 35.672414 -120.912857 309 35781ft 477kts
08-Jan-18 20:57 35.750130 -121.001053 309 35781ft 477kts
08-Jan-18 20:58 35.829716 -121.091614 309 35361ft 476kts
08-Jan-18 20:59 35.909910 -121.183120 309 34712ft 468kts
08-Jan-18 21:00 35.985600 -121.269807 310 33217ft 481kts
08-Jan-18 21:01 36.067723 -121.361673 318 31111ft 502kts
08-Jan-18 21:02 36.135460 -121.416308 322 29380ft 511kts
08-Jan-18 21:03 36.203553 -121.469940 323 27643ft 511kts
08-Jan-18 21:04 36.275770 -121.526576 323 26342ft 497kts
08-Jan-18 21:05 36.349779 -121.584694 324 24769ft 484kts
08-Jan-18 21:06 36.423849 -121.642864 324 22764ft 471kts
08-Jan-18 21:07 36.498898 -121.702004 323 21068ft 459kts
08-Jan-18 21:08 36.576237 -121.763116 323 19199ft 445kts
08-Jan-18 21:09 36.656067 -121.826357 323 17111ft 430kts
08-Jan-18 21:10 36.729603 -121.883960 330 16701ft 387kts
08-Jan-18 21:11 36.813158 -121.912398 343 15811ft 383kts
08-Jan-18 21:12 36.889052 -121.934747 344 14472ft 375kts
08-Jan-18 21:13 36.960642 -121.956512 340 13067ft 367kts
08-Jan-18 21:14 37.040387 -121.987607 340 11416ft 375kts
08-Jan-18 21:15 37.115052 -122.016758 340 10459ft 343kts
08-Jan-18 21:16 37.189770 -122.046014 340 9149ft 317kts
08-Jan-18 21:17 37.258323 -122.072903 340 7586ft 304kts
08-Jan-18 21:18 37.334755 -122.102933 340 5779ft 292kts
08-Jan-18 21:19 37.408621 -122.131939 339 3971ft 263kts
08-Jan-18 21:20 37.479591 -122.158193 343 3972ft 271kts
08-Jan-18 21:21 37.546896 -122.186801 300 3238ft 233kts
08-Jan-18 21:22 37.570592 -122.253861 294 1873ft 188kts
08-Jan-18 21:23 37.591923 -122.305620 298 958ft 160kts
08-Jan-18 21:24 37.610972 -122.351110 300 188ft 138kts
08-Jan-18 21:25 37.622137 -122.375868 52 19ft 11kts
08-Jan-18 21:26 37.623183 -122.376442 297 19ft 15kts
08-Jan-18 21:27 37.625497 -122.381939 299 19ft 15kts
08-Jan-18 21:28 37.627355 -122.383874 320 19ft 12kts
08-Jan-18 21:29 37.627709 -122.384281 300 19ft 0kts
08-Jan-18 21:30 37.627709 -122.384281 300 19ft 0kts
08-Jan-18 21:31 37.627709 -122.384281 300 19ft 0kts
08-Jan-18 21:32 37.627709 -122.384281 300 19ft 0kts
08-Jan-18 21:33 37.627709 -122.384281 300 19ft 0kts
08-Jan-18 21:34 37.627709 -122.384281 300 19ft 0kts
08-Jan-18 21:35 37.627709 -122.384281 300 19ft 0kts
08-Jan-18 21:36 37.627709 -122.384281 300 19ft 0kts
08-Jan-18 21:37 37.627709 -122.384281 300 19ft 0kts
08-Jan-18 21:38 37.627709 -122.384281 300 19ft 0kts
08-Jan-18 21:39 37.627709 -122.384281 300 19ft 0kts
08-Jan-18 21:40 37.627709 -122.384281 300 19ft 0kts

Navigation Log

Ident Type
Flight plan parsing failed, navigation log unavailable